sensor_id;sensor_type;location;lat;lon;timestamp;P1;durP1;ratioP1;P2;durP2;ratioP2
62332;SDS011;48624;49.812;8.562;2023-10-13T00:00:31;12.55;;;7.10;;
62332;SDS011;48624;49.812;8.562;2023-10-13T00:03:01;9.85;;;6.88;;
62332;SDS011;48624;49.812;8.562;2023-10-13T00:05:30;12.30;;;6.95;;
62332;SDS011;48624;49.812;8.562;2023-10-13T00:07:57;14.52;;;7.20;;
62332;SDS011;48624;49.812;8.562;2023-10-13T00:10:30;13.07;;;7.60;;
62332;SDS011;48624;49.812;8.562;2023-10-13T00:12:56;11.82;;;6.93;;
62332;SDS011;48624;49.812;8.562;2023-10-13T00:15:38;15.90;;;7.72;;
62332;SDS011;48624;49.812;8.562;2023-10-13T00:18:25;15.35;;;7.60;;
62332;SDS011;48624;49.812;8.562;2023-10-13T00:20:52;11.50;;;6.93;;
62332;SDS011;48624;49.812;8.562;2023-10-13T00:23:21;18.02;;;8.32;;
62332;SDS011;48624;49.812;8.562;2023-10-13T00:25:48;10.43;;;6.75;;
62332;SDS011;48624;49.812;8.562;2023-10-13T00:28:22;12.48;;;6.40;;
62332;SDS011;48624;49.812;8.562;2023-10-13T00:30:52;12.30;;;6.88;;
62332;SDS011;48624;49.812;8.562;2023-10-13T00:33:28;11.88;;;6.55;;
62332;SDS011;48624;49.812;8.562;2023-10-13T00:35:58;11.43;;;6.25;;
62332;SDS011;48624;49.812;8.562;2023-10-13T00:38:24;11.85;;;7.28;;
62332;SDS011;48624;49.812;8.562;2023-10-13T00:40:49;10.15;;;6.63;;
62332;SDS011;48624;49.812;8.562;2023-10-13T00:43:18;11.70;;;6.90;;
62332;SDS011;48624;49.812;8.562;2023-10-13T00:45:45;18.27;;;7.60;;
62332;SDS011;48624;49.812;8.562;2023-10-13T00:48:42;9.35;;;6.75;;
62332;SDS011;48624;49.812;8.562;2023-10-13T00:51:08;11.30;;;7.80;;
62332;SDS011;48624;49.812;8.562;2023-10-13T00:53:44;12.57;;;6.50;;
62332;SDS011;48624;49.812;8.562;2023-10-13T00:56:12;13.02;;;6.75;;
62332;SDS011;48624;49.812;8.562;2023-10-13T00:58:45;21.83;;;7.63;;
62332;SDS011;48624;49.812;8.562;2023-10-13T01:01:18;17.10;;;6.90;;
62332;SDS011;48624;49.812;8.562;2023-10-13T01:03:52;14.20;;;6.82;;
62332;SDS011;48624;49.812;8.562;2023-10-13T01:06:20;11.60;;;6.55;;
62332;SDS011;48624;49.812;8.562;2023-10-13T01:08:56;11.60;;;6.50;;
62332;SDS011;48624;49.812;8.562;2023-10-13T01:11:47;11.77;;;6.47;;
62332;SDS011;48624;49.812;8.562;2023-10-13T01:14:17;13.85;;;7.05;;
62332;SDS011;48624;49.812;8.562;2023-10-13T01:16:44;12.38;;;6.65;;
62332;SDS011;48624;49.812;8.562;2023-10-13T01:19:19;13.07;;;7.55;;
62332;SDS011;48624;49.812;8.562;2023-10-13T01:22:11;15.10;;;7.10;;
62332;SDS011;48624;49.812;8.562;2023-10-13T01:24:38;12.35;;;7.03;;
62332;SDS011;48624;49.812;8.562;2023-10-13T01:27:04;14.40;;;7.43;;
62332;SDS011;48624;49.812;8.562;2023-10-13T01:29:43;11.57;;;6.70;;
62332;SDS011;48624;49.812;8.562;2023-10-13T01:32:13;13.93;;;6.57;;
62332;SDS011;48624;49.812;8.562;2023-10-13T01:34:40;15.82;;;6.78;;
62332;SDS011;48624;49.812;8.562;2023-10-13T01:37:10;12.82;;;5.97;;
62332;SDS011;48624;49.812;8.562;2023-10-13T01:39:36;11.15;;;6.35;;
62332;SDS011;48624;49.812;8.562;2023-10-13T01:42:02;11.40;;;6.50;;
62332;SDS011;48624;49.812;8.562;2023-10-13T01:44:27;15.10;;;6.57;;
62332;SDS011;48624;49.812;8.562;2023-10-13T01:46:55;9.48;;;6.38;;
62332;SDS011;48624;49.812;8.562;2023-10-13T01:49:24;13.13;;;6.32;;
62332;SDS011;48624;49.812;8.562;2023-10-13T01:51:49;10.45;;;6.95;;
62332;SDS011;48624;49.812;8.562;2023-10-13T01:54:15;14.82;;;6.05;;
62332;SDS011;48624;49.812;8.562;2023-10-13T01:56:40;15.98;;;7.03;;
62332;SDS011;48624;49.812;8.562;2023-10-13T01:59:12;11.02;;;6.95;;
62332;SDS011;48624;49.812;8.562;2023-10-13T02:01:38;14.07;;;6.65;;
62332;SDS011;48624;49.812;8.562;2023-10-13T02:04:06;15.65;;;6.60;;
62332;SDS011;48624;49.812;8.562;2023-10-13T02:06:32;14.75;;;7.25;;
62332;SDS011;48624;49.812;8.562;2023-10-13T02:09:02;11.25;;;6.20;;
62332;SDS011;48624;49.812;8.562;2023-10-13T02:11:41;10.23;;;6.50;;
62332;SDS011;48624;49.812;8.562;2023-10-13T02:14:12;13.10;;;7.15;;
62332;SDS011;48624;49.812;8.562;2023-10-13T02:16:41;15.20;;;7.50;;
62332;SDS011;48624;49.812;8.562;2023-10-13T02:19:07;11.95;;;7.18;;
62332;SDS011;48624;49.812;8.562;2023-10-13T02:21:40;11.90;;;6.18;;
62332;SDS011;48624;49.812;8.562;2023-10-13T02:24:08;12.20;;;6.43;;
62332;SDS011;48624;49.812;8.562;2023-10-13T02:26:38;11.05;;;6.45;;
62332;SDS011;48624;49.812;8.562;2023-10-13T02:29:05;12.32;;;8.02;;
62332;SDS011;48624;49.812;8.562;2023-10-13T02:31:43;10.13;;;7.00;;
62332;SDS011;48624;49.812;8.562;2023-10-13T02:34:28;14.45;;;8.15;;
62332;SDS011;48624;49.812;8.562;2023-10-13T02:36:55;11.70;;;7.18;;
62332;SDS011;48624;49.812;8.562;2023-10-13T02:39:20;12.20;;;8.18;;
62332;SDS011;48624;49.812;8.562;2023-10-13T02:41:50;15.85;;;8.45;;
62332;SDS011;48624;49.812;8.562;2023-10-13T02:44:15;14.18;;;9.25;;
62332;SDS011;48624;49.812;8.562;2023-10-13T02:47:02;11.93;;;8.40;;
62332;SDS011;48624;49.812;8.562;2023-10-13T02:49:39;13.65;;;8.32;;
62332;SDS011;48624;49.812;8.562;2023-10-13T02:52:08;15.02;;;8.73;;
62332;SDS011;48624;49.812;8.562;2023-10-13T02:54:37;14.20;;;8.77;;
62332;SDS011;48624;49.812;8.562;2023-10-13T02:57:12;14.05;;;7.60;;
62332;SDS011;48624;49.812;8.562;2023-10-13T02:59:40;14.45;;;8.95;;
62332;SDS011;48624;49.812;8.562;2023-10-13T03:02:12;11.05;;;8.57;;
62332;SDS011;48624;49.812;8.562;2023-10-13T03:04:52;14.50;;;9.13;;
62332;SDS011;48624;49.812;8.562;2023-10-13T03:07:27;13.90;;;8.15;;
62332;SDS011;48624;49.812;8.562;2023-10-13T03:09:54;18.95;;;8.68;;
62332;SDS011;48624;49.812;8.562;2023-10-13T03:12:22;13.93;;;7.65;;
62332;SDS011;48624;49.812;8.562;2023-10-13T03:14:49;12.85;;;9.15;;
62332;SDS011;48624;49.812;8.562;2023-10-13T03:17:21;15.60;;;9.07;;
62332;SDS011;48624;49.812;8.562;2023-10-13T03:19:58;13.60;;;8.70;;
62332;SDS011;48624;49.812;8.562;2023-10-13T03:22:24;16.35;;;9.52;;
62332;SDS011;48624;49.812;8.562;2023-10-13T03:24:57;13.48;;;8.05;;
62332;SDS011;48624;49.812;8.562;2023-10-13T03:27:34;18.02;;;8.70;;
62332;SDS011;48624;49.812;8.562;2023-10-13T03:30:18;13.50;;;8.63;;
62332;SDS011;48624;49.812;8.562;2023-10-13T03:32:45;14.68;;;8.10;;
62332;SDS011;48624;49.812;8.562;2023-10-13T03:35:13;14.95;;;8.07;;
62332;SDS011;48624;49.812;8.562;2023-10-13T03:37:49;12.88;;;7.85;;
62332;SDS011;48624;49.812;8.562;2023-10-13T03:40:14;14.88;;;8.40;;
62332;SDS011;48624;49.812;8.562;2023-10-13T03:42:49;12.40;;;7.15;;
62332;SDS011;48624;49.812;8.562;2023-10-13T03:45:33;10.30;;;7.35;;
62332;SDS011;48624;49.812;8.562;2023-10-13T03:48:07;9.77;;;7.00;;
62332;SDS011;48624;49.812;8.562;2023-10-13T03:50:52;15.88;;;8.75;;
62332;SDS011;48624;49.812;8.562;2023-10-13T03:53:39;12.57;;;7.18;;
62332;SDS011;48624;49.812;8.562;2023-10-13T03:56:19;14.05;;;7.97;;
62332;SDS011;48624;49.812;8.562;2023-10-13T03:59:06;15.35;;;8.15;;
62332;SDS011;48624;49.812;8.562;2023-10-13T04:01:43;11.05;;;7.25;;
62332;SDS011;48624;49.812;8.562;2023-10-13T04:04:23;15.07;;;8.10;;
62332;SDS011;48624;49.812;8.562;2023-10-13T04:07:13;13.07;;;7.68;;
62332;SDS011;48624;49.812;8.562;2023-10-13T04:09:45;16.13;;;8.23;;
62332;SDS011;48624;49.812;8.562;2023-10-13T04:12:13;15.23;;;7.18;;
62332;SDS011;48624;49.812;8.562;2023-10-13T04:14:58;12.13;;;8.10;;
62332;SDS011;48624;49.812;8.562;2023-10-13T04:17:23;15.85;;;8.52;;
62332;SDS011;48624;49.812;8.562;2023-10-13T04:19:51;12.85;;;7.63;;
62332;SDS011;48624;49.812;8.562;2023-10-13T04:22:30;12.80;;;7.78;;
62332;SDS011;48624;49.812;8.562;2023-10-13T04:25:21;14.73;;;7.38;;
62332;SDS011;48624;49.812;8.562;2023-10-13T04:28:10;13.40;;;7.50;;
62332;SDS011;48624;49.812;8.562;2023-10-13T04:30:39;12.40;;;7.78;;
62332;SDS011;48624;49.812;8.562;2023-10-13T04:33:15;15.82;;;7.78;;
62332;SDS011;48624;49.812;8.562;2023-10-13T04:36:11;11.20;;;7.10;;
62332;SDS011;48624;49.812;8.562;2023-10-13T04:38:47;11.27;;;7.20;;
62332;SDS011;48624;49.812;8.562;2023-10-13T04:41:34;13.63;;;7.22;;
62332;SDS011;48624;49.812;8.562;2023-10-13T04:44:07;11.07;;;6.45;;
62332;SDS011;48624;49.812;8.562;2023-10-13T04:46:54;11.82;;;6.95;;
62332;SDS011;48624;49.812;8.562;2023-10-13T04:49:27;10.85;;;6.40;;
62332;SDS011;48624;49.812;8.562;2023-10-13T04:51:59;15.50;;;7.25;;
62332;SDS011;48624;49.812;8.562;2023-10-13T04:54:33;15.38;;;7.50;;
62332;SDS011;48624;49.812;8.562;2023-10-13T04:57:09;11.63;;;6.40;;
62332;SDS011;48624;49.812;8.562;2023-10-13T04:59:40;10.13;;;6.53;;
62332;SDS011;48624;49.812;8.562;2023-10-13T05:02:23;9.38;;;5.78;;
62332;SDS011;48624;49.812;8.562;2023-10-13T05:05:05;11.25;;;6.22;;
62332;SDS011;48624;49.812;8.562;2023-10-13T05:07:39;12.40;;;8.00;;
62332;SDS011;48624;49.812;8.562;2023-10-13T05:10:24;11.00;;;6.40;;
62332;SDS011;48624;49.812;8.562;2023-10-13T05:13:08;13.23;;;6.55;;
62332;SDS011;48624;49.812;8.562;2023-10-13T05:15:52;12.57;;;6.38;;
62332;SDS011;48624;49.812;8.562;2023-10-13T05:18:36;10.82;;;5.88;;
62332;SDS011;48624;49.812;8.562;2023-10-13T05:21:20;11.73;;;6.25;;
62332;SDS011;48624;49.812;8.562;2023-10-13T05:24:05;12.30;;;5.90;;
62332;SDS011;48624;49.812;8.562;2023-10-13T05:26:50;10.10;;;6.43;;
62332;SDS011;48624;49.812;8.562;2023-10-13T05:29:38;18.30;;;6.70;;
62332;SDS011;48624;49.812;8.562;2023-10-13T05:32:23;10.63;;;5.30;;
62332;SDS011;48624;49.812;8.562;2023-10-13T05:35:08;12.25;;;6.97;;
62332;SDS011;48624;49.812;8.562;2023-10-13T05:37:51;15.32;;;6.03;;
62332;SDS011;48624;49.812;8.562;2023-10-13T05:40:35;10.00;;;6.03;;
62332;SDS011;48624;49.812;8.562;2023-10-13T05:43:19;10.98;;;6.32;;
62332;SDS011;48624;49.812;8.562;2023-10-13T05:46:04;17.02;;;6.28;;
62332;SDS011;48624;49.812;8.562;2023-10-13T05:49:01;14.02;;;6.38;;
62332;SDS011;48624;49.812;8.562;2023-10-13T05:51:36;10.40;;;5.80;;
62332;SDS011;48624;49.812;8.562;2023-10-13T05:54:08;9.95;;;5.63;;
62332;SDS011;48624;49.812;8.562;2023-10-13T05:59:30;11.13;;;6.35;;
62332;SDS011;48624;49.812;8.562;2023-10-13T06:02:16;16.58;;;6.93;;
62332;SDS011;48624;49.812;8.562;2023-10-13T06:05:04;10.02;;;5.72;;
62332;SDS011;48624;49.812;8.562;2023-10-13T06:07:53;13.50;;;6.53;;
62332;SDS011;48624;49.812;8.562;2023-10-13T06:10:37;12.48;;;6.03;;
62332;SDS011;48624;49.812;8.562;2023-10-13T06:13:22;9.32;;;5.78;;
62332;SDS011;48624;49.812;8.562;2023-10-13T06:16:06;7.57;;;5.13;;
62332;SDS011;48624;49.812;8.562;2023-10-13T06:18:51;8.82;;;5.20;;
62332;SDS011;48624;49.812;8.562;2023-10-13T06:21:35;10.50;;;6.05;;
62332;SDS011;48624;49.812;8.562;2023-10-13T06:24:18;12.55;;;5.68;;
62332;SDS011;48624;49.812;8.562;2023-10-13T06:27:02;11.02;;;6.07;;
62332;SDS011;48624;49.812;8.562;2023-10-13T06:29:46;12.48;;;5.45;;
62332;SDS011;48624;49.812;8.562;2023-10-13T06:32:12;10.63;;;6.65;;
62332;SDS011;48624;49.812;8.562;2023-10-13T06:34:37;12.68;;;4.97;;
62332;SDS011;48624;49.812;8.562;2023-10-13T06:37:07;11.63;;;5.82;;
62332;SDS011;48624;49.812;8.562;2023-10-13T06:39:51;8.52;;;6.03;;
62332;SDS011;48624;49.812;8.562;2023-10-13T06:42:21;11.82;;;5.28;;
62332;SDS011;48624;49.812;8.562;2023-10-13T06:44:55;13.93;;;5.75;;
62332;SDS011;48624;49.812;8.562;2023-10-13T06:47:24;6.78;;;4.55;;
62332;SDS011;48624;49.812;8.562;2023-10-13T06:49:50;11.65;;;4.75;;
62332;SDS011;48624;49.812;8.562;2023-10-13T06:52:22;13.98;;;5.28;;
62332;SDS011;48624;49.812;8.562;2023-10-13T06:54:51;9.93;;;4.70;;
62332;SDS011;48624;49.812;8.562;2023-10-13T06:57:18;8.15;;;4.80;;
62332;SDS011;48624;49.812;8.562;2023-10-13T06:59:47;7.72;;;4.65;;
62332;SDS011;48624;49.812;8.562;2023-10-13T07:02:13;5.70;;;4.85;;
62332;SDS011;48624;49.812;8.562;2023-10-13T07:04:47;9.13;;;4.32;;
62332;SDS011;48624;49.812;8.562;2023-10-13T07:07:13;10.75;;;5.55;;
62332;SDS011;48624;49.812;8.562;2023-10-13T07:09:43;10.30;;;4.63;;
62332;SDS011;48624;49.812;8.562;2023-10-13T07:12:20;9.70;;;5.03;;
62332;SDS011;48624;49.812;8.562;2023-10-13T07:14:58;10.55;;;5.95;;
62332;SDS011;48624;49.812;8.562;2023-10-13T07:17:35;8.07;;;4.28;;
62332;SDS011;48624;49.812;8.562;2023-10-13T07:20:05;9.57;;;4.32;;
62332;SDS011;48624;49.812;8.562;2023-10-13T07:22:40;7.40;;;3.95;;
62332;SDS011;48624;49.812;8.562;2023-10-13T07:25:20;7.10;;;4.80;;
62332;SDS011;48624;49.812;8.562;2023-10-13T07:27:49;10.38;;;4.47;;
62332;SDS011;48624;49.812;8.562;2023-10-13T07:30:14;9.23;;;5.07;;
62332;SDS011;48624;49.812;8.562;2023-10-13T07:32:41;8.13;;;5.13;;
62332;SDS011;48624;49.812;8.562;2023-10-13T07:35:16;6.97;;;4.22;;
62332;SDS011;48624;49.812;8.562;2023-10-13T07:37:46;12.18;;;4.97;;
62332;SDS011;48624;49.812;8.562;2023-10-13T07:40:17;10.68;;;5.07;;
62332;SDS011;48624;49.812;8.562;2023-10-13T07:42:52;7.32;;;4.53;;
62332;SDS011;48624;49.812;8.562;2023-10-13T07:45:29;8.82;;;4.95;;
62332;SDS011;48624;49.812;8.562;2023-10-13T07:48:09;12.73;;;4.70;;
62332;SDS011;48624;49.812;8.562;2023-10-13T07:50:45;9.95;;;4.22;;
62332;SDS011;48624;49.812;8.562;2023-10-13T07:53:10;7.30;;;4.40;;
62332;SDS011;48624;49.812;8.562;2023-10-13T07:55:48;7.00;;;4.38;;
62332;SDS011;48624;49.812;8.562;2023-10-13T07:58:24;6.80;;;4.38;;
62332;SDS011;48624;49.812;8.562;2023-10-13T08:00:50;6.75;;;3.85;;
62332;SDS011;48624;49.812;8.562;2023-10-13T08:03:32;8.45;;;4.45;;
62332;SDS011;48624;49.812;8.562;2023-10-13T08:06:09;10.73;;;5.22;;
62332;SDS011;48624;49.812;8.562;2023-10-13T08:08:34;6.75;;;4.05;;
62332;SDS011;48624;49.812;8.562;2023-10-13T08:11:03;9.55;;;4.47;;
62332;SDS011;48624;49.812;8.562;2023-10-13T08:13:49;5.75;;;4.22;;
62332;SDS011;48624;49.812;8.562;2023-10-13T08:16:25;7.70;;;4.80;;
62332;SDS011;48624;49.812;8.562;2023-10-13T08:19:10;6.97;;;4.05;;
62332;SDS011;48624;49.812;8.562;2023-10-13T08:21:40;15.30;;;4.10;;
62332;SDS011;48624;49.812;8.562;2023-10-13T08:24:22;10.55;;;5.38;;
62332;SDS011;48624;49.812;8.562;2023-10-13T08:27:16;8.98;;;4.15;;
62332;SDS011;48624;49.812;8.562;2023-10-13T08:30:02;8.50;;;4.95;;
62332;SDS011;48624;49.812;8.562;2023-10-13T08:32:47;6.80;;;4.10;;
62332;SDS011;48624;49.812;8.562;2023-10-13T08:35:41;10.32;;;4.40;;
62332;SDS011;48624;49.812;8.562;2023-10-13T08:38:19;6.68;;;4.30;;
62332;SDS011;48624;49.812;8.562;2023-10-13T08:40:44;8.45;;;4.30;;
62332;SDS011;48624;49.812;8.562;2023-10-13T08:43:33;8.27;;;4.47;;
62332;SDS011;48624;49.812;8.562;2023-10-13T08:46:10;11.40;;;4.60;;
62332;SDS011;48624;49.812;8.562;2023-10-13T08:48:49;8.50;;;4.13;;
62332;SDS011;48624;49.812;8.562;2023-10-13T08:51:17;10.75;;;5.15;;
62332;SDS011;48624;49.812;8.562;2023-10-13T08:54:05;8.95;;;4.72;;
62332;SDS011;48624;49.812;8.562;2023-10-13T08:56:43;9.43;;;4.68;;
62332;SDS011;48624;49.812;8.562;2023-10-13T08:59:12;8.00;;;4.63;;
62332;SDS011;48624;49.812;8.562;2023-10-13T09:01:47;6.93;;;3.90;;
62332;SDS011;48624;49.812;8.562;2023-10-13T09:04:25;7.65;;;4.50;;
62332;SDS011;48624;49.812;8.562;2023-10-13T09:09:33;10.43;;;4.63;;
62332;SDS011;48624;49.812;8.562;2023-10-13T09:12:22;10.10;;;4.57;;
62332;SDS011;48624;49.812;8.562;2023-10-13T09:14:58;10.98;;;3.72;;
62332;SDS011;48624;49.812;8.562;2023-10-13T09:17:48;9.35;;;4.55;;
62332;SDS011;48624;49.812;8.562;2023-10-13T09:20:29;8.57;;;3.70;;
62332;SDS011;48624;49.812;8.562;2023-10-13T09:23:14;6.82;;;4.07;;
62332;SDS011;48624;49.812;8.562;2023-10-13T09:26:10;6.35;;;3.75;;
62332;SDS011;48624;49.812;8.562;2023-10-13T09:28:37;6.80;;;3.90;;
62332;SDS011;48624;49.812;8.562;2023-10-13T09:31:02;6.38;;;3.50;;
62332;SDS011;48624;49.812;8.562;2023-10-13T09:33:32;10.65;;;4.60;;
62332;SDS011;48624;49.812;8.562;2023-10-13T09:35:58;5.20;;;3.30;;
62332;SDS011;48624;49.812;8.562;2023-10-13T09:38:25;6.00;;;3.92;;
62332;SDS011;48624;49.812;8.562;2023-10-13T09:40:52;6.88;;;4.03;;
62332;SDS011;48624;49.812;8.562;2023-10-13T09:43:22;9.30;;;4.43;;
62332;SDS011;48624;49.812;8.562;2023-10-13T09:45:49;8.45;;;4.28;;
62332;SDS011;48624;49.812;8.562;2023-10-13T09:48:34;5.72;;;4.32;;
62332;SDS011;48624;49.812;8.562;2023-10-13T09:51:02;10.63;;;4.07;;
62332;SDS011;48624;49.812;8.562;2023-10-13T09:53:34;5.45;;;3.17;;
62332;SDS011;48624;49.812;8.562;2023-10-13T09:56:03;8.10;;;4.25;;
62332;SDS011;48624;49.812;8.562;2023-10-13T09:58:46;7.45;;;3.65;;
62332;SDS011;48624;49.812;8.562;2023-10-13T10:01:18;6.63;;;4.05;;
62332;SDS011;48624;49.812;8.562;2023-10-13T10:04:05;8.00;;;3.92;;
62332;SDS011;48624;49.812;8.562;2023-10-13T10:06:54;7.65;;;4.40;;
62332;SDS011;48624;49.812;8.562;2023-10-13T10:09:26;7.07;;;4.85;;
62332;SDS011;48624;49.812;8.562;2023-10-13T10:15:11;12.57;;;4.35;;
62332;SDS011;48624;49.812;8.562;2023-10-13T10:17:45;6.68;;;3.95;;
62332;SDS011;48624;49.812;8.562;2023-10-13T10:20:10;7.07;;;3.60;;
62332;SDS011;48624;49.812;8.562;2023-10-13T10:22:57;9.90;;;4.20;;
62332;SDS011;48624;49.812;8.562;2023-10-13T10:25:29;5.28;;;3.80;;
62332;SDS011;48624;49.812;8.562;2023-10-13T10:28:00;7.85;;;4.53;;
62332;SDS011;48624;49.812;8.562;2023-10-13T10:30:30;10.40;;;4.28;;
62332;SDS011;48624;49.812;8.562;2023-10-13T10:33:01;7.38;;;4.40;;
62332;SDS011;48624;49.812;8.562;2023-10-13T10:35:44;9.23;;;3.80;;
62332;SDS011;48624;49.812;8.562;2023-10-13T10:38:15;5.03;;;3.42;;
62332;SDS011;48624;49.812;8.562;2023-10-13T10:41:03;8.10;;;4.55;;
62332;SDS011;48624;49.812;8.562;2023-10-13T10:43:35;11.13;;;3.80;;
62332;SDS011;48624;49.812;8.562;2023-10-13T10:46:12;9.55;;;4.03;;
62332;SDS011;48624;49.812;8.562;2023-10-13T10:48:37;7.43;;;3.97;;
62332;SDS011;48624;49.812;8.562;2023-10-13T10:51:09;5.40;;;3.22;;
62332;SDS011;48624;49.812;8.562;2023-10-13T10:53:51;5.35;;;3.78;;
62332;SDS011;48624;49.812;8.562;2023-10-13T10:56:19;7.38;;;4.45;;
62332;SDS011;48624;49.812;8.562;2023-10-13T10:59:01;9.20;;;4.28;;
62332;SDS011;48624;49.812;8.562;2023-10-13T11:01:29;7.95;;;4.32;;
62332;SDS011;48624;49.812;8.562;2023-10-13T11:06:34;9.48;;;4.78;;
62332;SDS011;48624;49.812;8.562;2023-10-13T11:09:07;6.28;;;4.60;;
62332;SDS011;48624;49.812;8.562;2023-10-13T11:11:51;6.45;;;3.67;;
62332;SDS011;48624;49.812;8.562;2023-10-13T11:14:27;7.50;;;4.40;;
62332;SDS011;48624;49.812;8.562;2023-10-13T11:16:54;10.27;;;4.28;;
62332;SDS011;48624;49.812;8.562;2023-10-13T11:19:39;12.98;;;4.22;;
62332;SDS011;48624;49.812;8.562;2023-10-13T11:22:16;8.73;;;5.15;;
62332;SDS011;48624;49.812;8.562;2023-10-13T11:24:57;8.18;;;3.80;;
62332;SDS011;48624;49.812;8.562;2023-10-13T11:27:37;8.18;;;3.90;;
62332;SDS011;48624;49.812;8.562;2023-10-13T11:30:18;6.90;;;4.15;;
62332;SDS011;48624;49.812;8.562;2023-10-13T11:33:24;9.70;;;4.10;;
62332;SDS011;48624;49.812;8.562;2023-10-13T11:35:53;9.13;;;4.15;;
62332;SDS011;48624;49.812;8.562;2023-10-13T11:38:19;7.00;;;4.28;;
62332;SDS011;48624;49.812;8.562;2023-10-13T11:40:58;7.45;;;4.18;;
62332;SDS011;48624;49.812;8.562;2023-10-13T11:43:27;9.18;;;4.13;;
62332;SDS011;48624;49.812;8.562;2023-10-13T11:45:53;7.38;;;3.80;;
62332;SDS011;48624;49.812;8.562;2023-10-13T11:48:38;5.03;;;3.40;;
62332;SDS011;48624;49.812;8.562;2023-10-13T11:51:04;7.20;;;4.07;;
62332;SDS011;48624;49.812;8.562;2023-10-13T11:53:33;6.35;;;3.53;;
62332;SDS011;48624;49.812;8.562;2023-10-13T11:56:00;6.72;;;4.45;;
62332;SDS011;48624;49.812;8.562;2023-10-13T11:58:25;6.40;;;4.18;;
62332;SDS011;48624;49.812;8.562;2023-10-13T12:00:51;5.90;;;3.20;;
62332;SDS011;48624;49.812;8.562;2023-10-13T12:03:18;7.00;;;3.80;;
62332;SDS011;48624;49.812;8.562;2023-10-13T12:06:02;5.95;;;3.42;;
62332;SDS011;48624;49.812;8.562;2023-10-13T12:08:47;10.32;;;4.25;;
62332;SDS011;48624;49.812;8.562;2023-10-13T12:11:17;7.25;;;4.20;;
62332;SDS011;48624;49.812;8.562;2023-10-13T12:13:58;7.03;;;4.82;;
62332;SDS011;48624;49.812;8.562;2023-10-13T12:16:23;4.93;;;3.88;;
62332;SDS011;48624;49.812;8.562;2023-10-13T12:18:59;7.25;;;3.58;;
62332;SDS011;48624;49.812;8.562;2023-10-13T12:21:26;6.75;;;4.00;;
62332;SDS011;48624;49.812;8.562;2023-10-13T12:23:52;7.88;;;4.68;;
62332;SDS011;48624;49.812;8.562;2023-10-13T12:26:18;7.70;;;4.28;;
62332;SDS011;48624;49.812;8.562;2023-10-13T12:28:44;6.25;;;3.78;;
62332;SDS011;48624;49.812;8.562;2023-10-13T12:31:17;8.40;;;4.47;;
62332;SDS011;48624;49.812;8.562;2023-10-13T12:33:51;7.65;;;4.70;;
62332;SDS011;48624;49.812;8.562;2023-10-13T12:36:16;6.07;;;4.07;;
62332;SDS011;48624;49.812;8.562;2023-10-13T12:38:44;7.22;;;3.67;;
62332;SDS011;48624;49.812;8.562;2023-10-13T12:41:16;9.45;;;4.22;;
62332;SDS011;48624;49.812;8.562;2023-10-13T12:44:02;6.13;;;4.13;;
62332;SDS011;48624;49.812;8.562;2023-10-13T12:46:46;9.05;;;4.00;;
62332;SDS011;48624;49.812;8.562;2023-10-13T12:49:34;7.00;;;3.92;;
62332;SDS011;48624;49.812;8.562;2023-10-13T12:52:05;6.55;;;3.63;;
62332;SDS011;48624;49.812;8.562;2023-10-13T12:54:41;9.60;;;3.95;;
62332;SDS011;48624;49.812;8.562;2023-10-13T12:57:19;8.93;;;4.18;;
62332;SDS011;48624;49.812;8.562;2023-10-13T12:59:48;5.90;;;3.83;;
62332;SDS011;48624;49.812;8.562;2023-10-13T13:02:13;7.72;;;4.32;;
62332;SDS011;48624;49.812;8.562;2023-10-13T13:04:41;6.28;;;3.83;;
62332;SDS011;48624;49.812;8.562;2023-10-13T13:07:10;6.30;;;3.70;;
62332;SDS011;48624;49.812;8.562;2023-10-13T13:09:42;10.32;;;3.90;;
62332;SDS011;48624;49.812;8.562;2023-10-13T13:12:07;5.82;;;3.45;;
62332;SDS011;48624;49.812;8.562;2023-10-13T13:14:32;8.55;;;4.15;;
62332;SDS011;48624;49.812;8.562;2023-10-13T13:17:01;5.90;;;3.83;;
62332;SDS011;48624;49.812;8.562;2023-10-13T13:19:30;6.25;;;3.35;;
62332;SDS011;48624;49.812;8.562;2023-10-13T13:22:08;6.88;;;4.05;;
62332;SDS011;48624;49.812;8.562;2023-10-13T13:24:40;6.30;;;3.42;;
62332;SDS011;48624;49.812;8.562;2023-10-13T13:27:12;7.38;;;3.58;;
62332;SDS011;48624;49.812;8.562;2023-10-13T13:29:41;7.30;;;3.67;;
62332;SDS011;48624;49.812;8.562;2023-10-13T13:32:07;7.28;;;4.60;;
62332;SDS011;48624;49.812;8.562;2023-10-13T13:34:46;6.35;;;3.67;;
62332;SDS011;48624;49.812;8.562;2023-10-13T13:37:19;9.73;;;4.28;;
62332;SDS011;48624;49.812;8.562;2023-10-13T13:39:45;8.30;;;4.25;;
62332;SDS011;48624;49.812;8.562;2023-10-13T13:42:10;6.03;;;3.47;;
62332;SDS011;48624;49.812;8.562;2023-10-13T13:44:36;8.05;;;4.35;;
62332;SDS011;48624;49.812;8.562;2023-10-13T13:47:01;7.90;;;4.50;;
62332;SDS011;48624;49.812;8.562;2023-10-13T13:49:47;6.07;;;3.88;;
62332;SDS011;48624;49.812;8.562;2023-10-13T13:52:16;4.85;;;3.00;;
62332;SDS011;48624;49.812;8.562;2023-10-13T13:54:58;6.22;;;3.85;;
62332;SDS011;48624;49.812;8.562;2023-10-13T13:57:28;8.20;;;3.47;;
62332;SDS011;48624;49.812;8.562;2023-10-13T13:59:55;6.35;;;3.33;;
62332;SDS011;48624;49.812;8.562;2023-10-13T14:02:22;7.63;;;3.03;;
62332;SDS011;48624;49.812;8.562;2023-10-13T14:04:48;9.23;;;3.63;;
62332;SDS011;48624;49.812;8.562;2023-10-13T14:07:18;8.40;;;3.80;;
62332;SDS011;48624;49.812;8.562;2023-10-13T14:09:45;10.45;;;3.78;;
62332;SDS011;48624;49.812;8.562;2023-10-13T14:12:16;5.80;;;3.42;;
62332;SDS011;48624;49.812;8.562;2023-10-13T14:14:54;9.40;;;3.38;;
62332;SDS011;48624;49.812;8.562;2023-10-13T14:17:28;5.97;;;3.92;;
62332;SDS011;48624;49.812;8.562;2023-10-13T14:19:55;8.85;;;3.42;;
62332;SDS011;48624;49.812;8.562;2023-10-13T14:22:21;5.68;;;3.67;;
62332;SDS011;48624;49.812;8.562;2023-10-13T14:24:50;5.43;;;3.42;;
62332;SDS011;48624;49.812;8.562;2023-10-13T14:27:19;11.82;;;4.55;;
62332;SDS011;48624;49.812;8.562;2023-10-13T14:29:47;8.60;;;3.90;;
62332;SDS011;48624;49.812;8.562;2023-10-13T14:32:17;6.75;;;3.45;;
62332;SDS011;48624;49.812;8.562;2023-10-13T14:34:44;7.95;;;3.45;;
62332;SDS011;48624;49.812;8.562;2023-10-13T14:37:12;6.28;;;2.97;;
62332;SDS011;48624;49.812;8.562;2023-10-13T14:39:38;4.65;;;2.83;;
62332;SDS011;48624;49.812;8.562;2023-10-13T14:42:04;6.15;;;3.33;;
62332;SDS011;48624;49.812;8.562;2023-10-13T14:44:32;6.65;;;3.40;;
62332;SDS011;48624;49.812;8.562;2023-10-13T14:46:58;5.50;;;3.30;;
62332;SDS011;48624;49.812;8.562;2023-10-13T14:49:24;9.25;;;3.42;;
62332;SDS011;48624;49.812;8.562;2023-10-13T14:51:50;5.93;;;4.10;;
62332;SDS011;48624;49.812;8.562;2023-10-13T14:54:15;6.25;;;3.08;;
62332;SDS011;48624;49.812;8.562;2023-10-13T14:56:41;8.30;;;4.03;;
62332;SDS011;48624;49.812;8.562;2023-10-13T14:59:07;8.32;;;3.38;;
62332;SDS011;48624;49.812;8.562;2023-10-13T15:01:37;8.15;;;3.90;;
62332;SDS011;48624;49.812;8.562;2023-10-13T15:04:02;5.82;;;3.60;;
62332;SDS011;48624;49.812;8.562;2023-10-13T15:06:29;6.82;;;3.72;;
62332;SDS011;48624;49.812;8.562;2023-10-13T15:08:58;7.65;;;3.47;;
62332;SDS011;48624;49.812;8.562;2023-10-13T15:11:25;6.90;;;3.45;;
62332;SDS011;48624;49.812;8.562;2023-10-13T15:14:03;6.13;;;3.55;;
62332;SDS011;48624;49.812;8.562;2023-10-13T15:16:31;8.95;;;3.58;;
62332;SDS011;48624;49.812;8.562;2023-10-13T15:18:58;6.70;;;3.67;;
62332;SDS011;48624;49.812;8.562;2023-10-13T15:21:28;5.88;;;3.70;;
62332;SDS011;48624;49.812;8.562;2023-10-13T15:23:59;8.27;;;3.88;;
62332;SDS011;48624;49.812;8.562;2023-10-13T15:26:32;6.68;;;3.85;;
62332;SDS011;48624;49.812;8.562;2023-10-13T15:29:02;6.22;;;3.90;;
62332;SDS011;48624;49.812;8.562;2023-10-13T15:31:33;6.05;;;3.03;;